Time;durP1;ratioP1;P1;durP2;ratioP2;P2;SDS_P1;SDS_P2;PMS_P1;PMS_P2;Temp;Humidity;BMP_temperature;BMP_pressure;BME280_temperature;BME280_humidity;BME280_pressure;Samples;Min_cycle;Max_cycle;Signal;HPM_P1;HPM_P2
2022/02/05 00:02:20;;;;;;;2.78;0.80;;;;;;;2.01;79.15;97614.72;5034389;28;20064;-61
2022/02/05 00:04:48;;;;;;;1.95;0.93;;;;;;;1.93;79.03;97615.69;5023841;28;20128;-61
2022/02/05 00:07:15;;;;;;;2.35;0.98;;;;;;;1.87;79.48;97629.78;5060390;28;20454;-62
2022/02/05 00:41:55;;;;;;;2.78;0.95;;;;;;;0.95;76.31;97678.09;5086553;28;20466;-62
2022/02/05 00:44:21;;;;;;;3.20;1.10;;;;;;;0.98;75.27;97687.59;5080066;28;20041;-62
2022/02/05 00:46:50;;;;;;;2.75;1.00;;;;;;;0.95;76.74;97688.78;5066396;28;20063;-61
2022/02/05 00:49:17;;;;;;;3.92;1.10;;;;;;;0.94;76.50;97689.78;5073328;28;20052;-62
2022/02/05 00:52:00;;;;;;;1.70;0.82;;;;;;;0.91;76.41;97690.16;5087164;28;20036;-62
2022/02/05 00:54:27;;;;;;;4.13;0.70;;;;;;;0.92;76.00;97699.00;5079102;28;20106;-62
2022/02/05 00:59:29;;;;;;;1.77;0.85;;;;;;;0.99;75.81;97708.72;5036850;28;1089067;-62
2022/02/05 01:01:56;;;;;;;2.50;0.95;;;;;;;0.97;75.26;97713.44;5084229;28;20058;-62
2022/02/05 01:04:23;;;;;;;1.65;0.82;;;;;;;1.00;77.39;97714.91;5067303;28;20101;-63
2022/02/05 01:06:50;;;;;;;4.60;1.20;;;;;;;0.85;75.12;97713.03;5067934;28;20044;-62
2022/02/05 01:09:22;;;;;;;1.42;0.75;;;;;;;0.77;75.55;97718.44;5081301;28;20044;-62
2022/02/05 01:11:49;;;;;;;1.30;0.88;;;;;;;0.75;75.99;97720.47;5078010;28;20032;-63
2022/02/05 01:14:20;;;;;;;2.75;1.42;;;;;;;0.76;76.07;97722.13;5082560;28;20783;-63
2022/02/05 01:16:56;;;;;;;3.40;0.93;;;;;;;0.72;75.87;97723.47;5086968;28;20410;-63
2022/02/05 01:22:00;;;;;;;5.60;1.20;;;;;;;0.62;77.53;97721.06;5068095;28;20045;-62
2022/02/05 01:24:27;;;;;;;5.80;1.10;;;;;;;0.48;78.06;97728.03;5087047;28;20116;-62
2022/02/05 01:27:13;;;;;;;3.00;1.60;;;;;;;0.55;77.72;97726.28;5086043;28;20416;-62
2022/02/05 01:30:05;;;;;;;5.88;1.70;;;;;;;0.54;77.72;97718.47;5072336;28;20043;-62
2022/02/05 01:32:34;;;;;;;;;;;;;;;0.53;77.31;97728.31;5080530;28;20097;-62
2022/02/05 01:35:27;;;;;;;1.98;0.90;;;;;;;0.38;78.11;97731.72;5087048;28;19981;-62
2022/02/05 01:49:13;;;;;;;2.53;0.90;;;;;;;0.31;77.61;97752.09;5081668;28;20052;-62
2022/02/05 01:56:58;;;;;;;4.90;1.27;;;;;;;0.24;77.95;97748.47;5086797;28;20588;-62
2022/02/05 01:59:45;;;;;;;;;;;;;;;0.21;77.55;97752.31;5078038;28;20089;-61
2022/02/05 02:05:05;;;;;;;4.55;1.70;;;;;;;0.24;77.96;97754.66;5074958;28;20036;-61
2022/02/05 02:11:05;;;;;;;3.85;1.80;;;;;;;0.29;77.59;97753.28;5059011;28;20113;-61
2022/02/05 02:21:50;;;;;;;4.88;1.73;;;;;;;0.16;77.90;97768.00;5066502;28;20546;-61
2022/02/05 02:24:34;;;;;;;3.75;1.50;;;;;;;0.15;78.48;97774.34;5065778;28;20110;-61
2022/02/05 02:30:18;;;;;;;5.22;1.92;;;;;;;0.23;78.25;97765.47;5079789;28;20055;-61
2022/02/05 02:32:15;;;;;;;2.72;1.40;;;;;;;0.24;77.84;97767.13;5073158;28;20052;-61
2022/02/05 02:34:47;;;;;;;6.65;1.90;;;;;;;0.24;78.26;97767.13;5085707;28;20117;-60
2022/02/05 02:37:19;;;;;;;3.30;1.98;;;;;;;0.10;78.98;97758.88;5086058;28;20048;-59
2022/02/05 02:40:35;;;;;;;4.65;2.13;;;;;;;0.05;79.05;97766.56;5085128;28;20048;-61
2022/02/05 02:42:41;;;;;;;5.05;2.00;;;;;;;0.00;79.20;97776.94;5079814;28;20542;-61
2022/02/05 02:45:08;;;;;;;6.55;2.03;;;;;;;-0.08;79.45;97780.44;5065590;28;20044;-59
2022/02/05 02:47:34;;;;;;;5.97;1.90;;;;;;;-0.02;79.07;97790.41;5067413;28;20048;-61
2022/02/05 02:50:07;;;;;;;6.78;2.05;;;;;;;-0.09;79.86;97788.59;5081400;28;20638;-61
2022/02/05 02:58:08;;;;;;;6.15;2.05;;;;;;;-0.23;80.68;97798.97;5084680;28;20089;-63
2022/02/05 03:00:34;;;;;;;6.82;2.17;;;;;;;-0.28;80.68;97799.50;5093688;28;20442;-64
2022/02/05 03:03:01;;;;;;;8.98;1.70;;;;;;;-0.23;80.61;97798.97;5080423;28;20045;-63
2022/02/05 03:05:28;;;;;;;3.33;2.03;;;;;;;-0.15;79.77;97798.09;5070014;28;20040;-61
2022/02/05 03:07:54;;;;;;;4.93;1.90;;;;;;;-0.06;79.49;97796.25;5084718;28;20059;-60
2022/02/05 03:10:21;;;;;;;4.85;1.95;;;;;;;0.02;79.28;97800.69;5078608;28;20048;-60
2022/02/05 03:12:47;;;;;;;4.68;1.80;;;;;;;0.02;78.88;97801.53;5066392;28;20658;-61
2022/02/05 03:15:18;;;;;;;4.32;1.95;;;;;;;0.04;78.79;97798.69;5085672;28;20042;-61
2022/02/05 03:18:03;;;;;;;5.45;1.75;;;;;;;0.09;78.50;97785.69;5077506;28;20094;-61
2022/02/05 03:20:30;;;;;;;3.75;1.60;;;;;;;0.08;78.73;97802.66;5075470;28;20109;-61
2022/02/05 03:22:57;;;;;;;4.82;2.08;;;;;;;0.02;78.92;97798.88;5074576;28;20109;-60
2022/02/05 03:25:24;;;;;;;3.58;1.70;;;;;;;-0.01;79.22;97801.88;5084670;28;20048;-61
2022/02/05 03:27:50;;;;;;;3.88;2.25;;;;;;;-0.06;79.31;97810.38;5082291;28;20507;-60
2022/02/05 03:30:17;;;;;;;12.48;2.30;;;;;;;0.02;79.20;97816.66;5064571;28;20134;-62
2022/02/05 03:32:44;;;;;;;3.97;1.77;;;;;;;0.06;79.04;97813.50;5077114;28;20051;-62
2022/02/05 03:35:10;;;;;;;4.93;2.10;;;;;;;-0.06;79.81;97820.19;5074504;28;20082;-62
2022/02/05 03:37:37;;;;;;;8.95;2.72;;;;;;;-0.14;80.29;97819.22;5084248;28;20040;-64
2022/02/05 03:40:04;;;;;;;4.90;2.13;;;;;;;-0.09;79.88;97832.03;5076035;28;20097;-62
2022/02/05 03:42:31;;;;;;;6.00;2.17;;;;;;;-0.02;80.54;97843.66;5085240;28;20043;-63
2022/02/05 03:44:57;;;;;;;4.47;2.10;;;;;;;-0.03;80.04;97849.97;5084000;28;20109;-60
2022/02/05 03:47:25;;;;;;;4.35;2.25;;;;;;;0.02;81.93;97852.13;5084541;28;20040;-61
2022/02/05 03:49:52;;;;;;;6.55;2.28;;;;;;;0.10;82.69;97857.41;5066565;28;20045;-60
2022/02/05 03:52:18;;;;;;;6.00;1.88;;;;;;;0.14;81.15;97857.88;5075721;28;20748;-61
2022/02/05 03:54:45;;;;;;;4.93;2.70;;;;;;;0.15;83.87;97856.06;5067648;28;20049;-60
2022/02/05 03:57:12;;;;;;;3.50;1.95;;;;;;;0.11;82.93;97864.38;5075369;28;20047;-61
2022/02/05 03:59:39;;;;;;;6.55;2.28;;;;;;;0.20;81.17;97865.19;5091558;28;20100;-61
2022/02/05 04:02:06;;;;;;;4.75;2.40;;;;;;;0.18;80.82;97867.19;5092433;28;20117;-63
2022/02/05 04:04:32;;;;;;;4.65;2.05;;;;;;;0.21;81.37;97874.00;5091257;28;20495;-63
2022/02/05 04:07:00;;;;;;;5.35;1.90;;;;;;;0.24;81.65;97873.66;5091460;28;20452;-63
2022/02/05 04:09:33;;;;;;;4.53;1.92;;;;;;;0.21;82.18;97880.16;5087819;28;20141;-64
2022/02/05 04:17:31;;;;;;;4.88;1.80;;;;;;;0.23;81.18;97885.34;5085160;28;20039;-61
2022/02/05 04:19:57;;;;;;;3.17;1.70;;;;;;;0.15;81.84;97899.53;5074214;28;20574;-63
2022/02/05 04:22:24;;;;;;;5.28;1.80;;;;;;;0.16;82.46;97887.00;5068456;28;20040;-61
2022/02/05 04:24:51;;;;;;;5.78;2.10;;;;;;;0.10;82.31;97892.03;5090841;28;20047;-61
2022/02/05 04:27:17;;;;;;;8.43;2.00;;;;;;;0.17;82.87;97896.66;5105041;28;20522;-62
2022/02/05 04:29:44;;;;;;;3.58;1.52;;;;;;;0.27;81.10;97897.31;5077857;28;20036;-61
2022/02/05 04:32:13;;;;;;;3.10;1.58;;;;;;;0.45;80.24;97899.72;5076605;28;20047;-62
2022/02/05 04:34:41;;;;;;;7.70;1.70;;;;;;;0.51;80.91;97903.50;5076738;28;20036;-62
2022/02/05 04:37:08;;;;;;;5.50;1.92;;;;;;;0.36;81.08;97906.06;5087844;28;20503;-62
2022/02/05 04:39:38;;;;;;;6.05;1.60;;;;;;;0.58;79.91;97906.31;5072389;28;20044;-61
2022/02/05 04:42:13;;;;;;;2.92;1.55;;;;;;;0.63;79.99;97912.78;5070977;28;20044;-62
2022/02/05 04:45:17;;;;;;;4.40;1.40;;;;;;;0.63;80.31;97910.09;5083913;28;20059;-64
2022/02/05 04:50:22;;;;;;;3.40;1.42;;;;;;;0.82;79.17;97909.84;5087655;28;20048;-62
2022/02/05 04:58:32;;;;;;;3.95;1.45;;;;;;;0.74;80.21;97910.75;5080586;28;20040;-62
2022/02/05 05:01:07;;;;;;;3.53;1.50;;;;;;;0.79;80.18;97908.38;5087841;28;20051;-62
2022/02/05 05:11:38;;;;;;;5.22;1.50;;;;;;;1.13;77.95;97906.31;5091863;28;20113;-61
2022/02/05 05:22:01;;;;;;;4.15;1.58;;;;;;;1.11;77.98;97911.81;5087289;28;20097;-62
2022/02/05 05:24:28;;;;;;;4.80;1.52;;;;;;;1.23;77.53;97920.25;5086297;28;20735;-62
2022/02/05 05:26:56;;;;;;;7.22;1.80;;;;;;;1.31;77.46;97922.03;5084018;28;20048;-62
2022/02/05 05:29:23;;;;;;;4.28;1.80;;;;;;;1.11;78.77;97925.16;5083280;28;20665;-62
2022/02/05 05:31:49;;;;;;;3.92;1.63;;;;;;;0.97;78.93;97932.09;5086033;28;20604;-62
2022/02/05 05:34:16;;;;;;;4.95;1.90;;;;;;;0.97;80.52;97937.44;5086025;28;20040;-62
2022/02/05 05:36:43;;;;;;;2.55;1.25;;;;;;;1.20;78.58;97933.09;5086450;28;20048;-62
2022/02/05 05:39:11;;;;;;;4.68;1.95;;;;;;;1.11;78.86;97935.00;5086361;28;20051;-62
2022/02/05 05:41:39;;;;;;;4.30;1.55;;;;;;;1.02;79.59;97935.06;5087243;28;20055;-61
2022/02/05 05:47:02;;;;;;;5.03;1.52;;;;;;;1.07;79.03;97942.50;5084395;28;20111;-62
2022/02/05 05:49:56;;;;;;;3.45;1.35;;;;;;;1.41;76.95;97946.63;5083270;28;20068;-61
2022/02/05 05:52:21;;;;;;;5.43;1.80;;;;;;;1.27;78.05;97945.56;5086666;28;20043;-62
2022/02/05 05:54:48;;;;;;;7.18;1.88;;;;;;;1.21;78.37;97945.44;5078369;28;20044;-62
2022/02/05 05:57:15;;;;;;;5.07;1.63;;;;;;;1.16;79.64;97949.47;5085482;28;20118;-61
2022/02/05 05:59:43;;;;;;;6.25;1.42;;;;;;;1.17;78.89;97944.97;5085217;28;20048;-61
2022/02/05 06:02:10;;;;;;;2.88;1.30;;;;;;;1.27;78.40;97950.91;5085780;28;20078;-61
2022/02/05 06:04:37;;;;;;;6.35;2.63;;;;;;;1.30;77.99;97952.38;5087901;28;20048;-62
2022/02/05 06:07:04;;;;;;;6.47;1.45;;;;;;;1.39;78.24;97953.13;5092160;28;20105;-63
2022/02/05 06:09:33;;;;;;;5.07;1.40;;;;;;;1.39;78.15;97956.66;5085906;28;20043;-62
2022/02/05 06:11:59;;;;;;;3.80;1.77;;;;;;;1.42;78.30;97960.78;5073865;28;20074;-62
2022/02/05 06:14:28;;;;;;;2.83;1.60;;;;;;;1.47;77.47;97965.63;5086243;28;20036;-61
2022/02/05 06:17:01;;;;;;;5.18;1.70;;;;;;;1.50;77.85;97966.06;5085945;28;20051;-61
2022/02/05 06:19:28;;;;;;;4.20;1.52;;;;;;;1.45;77.40;97972.94;5076627;28;20510;-62
2022/02/05 06:21:55;;;;;;;4.13;1.67;;;;;;;1.46;77.73;97982.59;5073178;28;20116;-62
2022/02/05 06:24:21;;;;;;;3.40;1.58;;;;;;;1.42;78.26;97977.66;5085287;28;20032;-61
2022/02/05 06:26:48;;;;;;;4.07;1.50;;;;;;;1.49;77.34;97969.75;5086113;28;20052;-61
2022/02/05 06:29:14;;;;;;;6.68;1.55;;;;;;;1.54;77.23;97974.53;5084536;28;20044;-62
2022/02/05 06:31:41;;;;;;;8.98;1.70;;;;;;;1.48;77.19;97968.09;5085494;28;20040;-62
2022/02/05 06:34:07;;;;;;;3.03;1.40;;;;;;;1.56;77.76;97967.19;5069385;28;20086;-62
2022/02/05 06:36:34;;;;;;;3.92;1.63;;;;;;;1.47;76.89;97974.44;5085150;28;20477;-61
2022/02/05 06:39:01;;;;;;;5.97;1.70;;;;;;;1.36;77.67;97977.53;5085101;28;20047;-61
2022/02/05 06:41:28;;;;;;;7.20;1.80;;;;;;;1.46;76.68;97990.63;5086166;28;20699;-61
2022/02/05 06:43:54;;;;;;;4.18;1.38;;;;;;;1.43;76.94;97984.63;5084950;28;20044;-61
2022/02/05 06:46:21;;;;;;;8.43;1.60;;;;;;;1.46;77.13;97980.78;5085153;28;20039;-60
2022/02/05 06:48:47;;;;;;;2.50;1.40;;;;;;;1.57;76.24;97992.88;5072535;28;20094;-61
2022/02/05 06:51:14;;;;;;;9.40;1.95;;;;;;;1.51;77.19;97990.94;5065285;28;20090;-61
2022/02/05 06:53:40;;;;;;;3.83;1.50;;;;;;;1.47;76.97;97997.63;5078221;28;20036;-61
2022/02/05 06:56:07;;;;;;;5.55;1.52;;;;;;;1.59;76.45;97996.22;5076376;28;20051;-61
2022/02/05 06:58:33;;;;;;;5.00;1.52;;;;;;;1.49;77.10;97999.13;5066991;28;20040;-62
2022/02/05 07:01:00;;;;;;;5.32;1.90;;;;;;;1.46;77.32;97996.78;5089479;28;20043;-62
2022/02/05 07:03:27;;;;;;;3.30;1.45;;;;;;;1.60;76.20;97994.34;5085720;28;20044;-62
2022/02/05 07:05:53;;;;;;;4.15;1.52;;;;;;;1.72;76.34;97997.44;5078827;28;20055;-62
2022/02/05 07:08:20;;;;;;;2.72;1.20;;;;;;;1.71;75.74;97996.63;5083300;28;20055;-62
2022/02/05 07:10:48;;;;;;;5.82;1.42;;;;;;;1.69;75.60;98002.13;5082807;28;20128;-62
2022/02/05 07:13:17;;;;;;;3.00;1.20;;;;;;;1.78;75.01;98007.41;5083040;28;20043;-61
2022/02/05 07:16:01;;;;;;;3.63;1.70;;;;;;;1.59;76.30;98009.56;5070503;28;20147;-62
2022/02/05 07:19:15;;;;;;;5.07;1.70;;;;;;;1.52;76.65;98006.75;5081044;28;20040;-62
2022/02/05 07:21:31;;;;;;;5.13;1.20;;;;;;;1.55;76.76;98008.25;5072214;28;20414;-62
2022/02/05 07:29:19;;;;;;;3.58;1.52;;;;;;;1.31;77.48;98020.75;5080601;28;20062;-62
2022/02/05 07:31:48;;;;;;;4.35;1.42;;;;;;;1.34;77.12;98028.41;5074523;28;20044;-62
2022/02/05 07:34:17;;;;;;;7.95;1.80;;;;;;;1.45;76.32;98027.16;5099950;28;20060;-63
2022/02/05 07:36:44;;;;;;;4.68;0.95;;;;;;;1.44;76.74;98041.53;5085064;28;20687;-62
2022/02/05 07:39:11;;;;;;;3.05;1.20;;;;;;;1.42;76.61;98040.84;5084352;28;20032;-62
2022/02/05 07:41:39;;;;;;;7.65;2.05;;;;;;;1.30;77.14;98040.44;5085611;28;20048;-62
2022/02/05 07:44:09;;;;;;;6.45;1.88;;;;;;;1.25;78.73;98035.63;5084439;28;20043;-62
2022/02/05 07:46:36;;;;;;;2.97;1.73;;;;;;;1.28;77.67;98042.44;5079816;28;20047;-62
2022/02/05 07:49:05;;;;;;;5.68;1.73;;;;;;;1.22;77.66;98049.28;5086440;28;20119;-61
2022/02/05 07:51:31;;;;;;;8.18;1.77;;;;;;;1.29;77.53;98050.25;5087262;28;20048;-62
2022/02/05 07:53:58;;;;;;;7.15;2.17;;;;;;;1.21;78.53;98052.16;5086482;28;20085;-63
2022/02/05 07:56:25;;;;;;;6.88;1.58;;;;;;;1.24;78.77;98055.31;5076407;28;20044;-63
2022/02/05 07:58:52;;;;;;;7.10;1.83;;;;;;;1.13;78.99;98059.19;5089117;28;20096;-62
2022/02/05 08:01:18;;;;;;;6.78;1.80;;;;;;;1.19;78.89;98057.66;5083972;28;20044;-64
2022/02/05 08:03:45;;;;;;;10.52;2.92;;;;;;;1.15;80.02;98062.50;5086980;28;20048;-63
2022/02/05 08:06:16;;;;;;;6.38;2.28;;;;;;;1.13;79.53;98061.84;5093879;28;20096;-63
2022/02/05 08:08:47;;;;;;;5.00;1.88;;;;;;;1.23;79.34;98067.00;5103770;28;20039;-63
2022/02/05 08:11:17;;;;;;;11.95;2.20;;;;;;;1.16;78.78;98071.34;5096216;28;20097;-62
2022/02/05 08:13:45;;;;;;;5.60;2.92;;;;;;;1.09;79.22;98073.03;5081156;28;20048;-67
2022/02/05 08:16:26;;;;;;;5.70;1.70;;;;;;;1.16;79.16;98074.00;5085622;28;20745;-66
2022/02/05 08:18:52;;;;;;;4.13;2.70;;;;;;;1.25;78.05;98077.50;5081917;28;20037;-69
2022/02/05 08:21:19;;;;;;;4.25;1.90;;;;;;;1.25;77.84;98080.16;5089139;28;20048;-68
2022/02/05 08:23:45;;;;;;;6.80;2.45;;;;;;;1.23;78.19;98079.47;5091347;28;20074;-68
2022/02/05 08:26:12;;;;;;;5.20;2.17;;;;;;;1.29;78.03;98078.81;5098425;28;20044;-66
2022/02/05 08:28:39;;;;;;;7.53;2.65;;;;;;;1.39;77.59;98087.41;5086359;28;20036;-69
2022/02/05 08:31:07;;;;;;;5.63;2.25;;;;;;;1.58;77.00;98089.81;5082394;28;20173;-65
2022/02/05 08:33:42;;;;;;;5.72;2.60;;;;;;;1.59;76.72;98080.78;5093376;28;20517;-66
2022/02/05 08:36:12;;;;;;;9.40;2.95;;;;;;;1.67;77.08;98094.09;5092305;28;20569;-67
2022/02/05 08:38:39;;;;;;;10.23;2.75;;;;;;;1.81;76.54;98084.50;5079619;28;20035;-67
2022/02/05 08:41:06;;;;;;;9.52;3.22;;;;;;;1.81;76.63;98095.19;5092546;28;20047;-67
2022/02/05 08:43:32;;;;;;;6.90;2.00;;;;;;;1.89;76.66;98092.44;5084105;28;20040;-67
2022/02/05 08:45:59;;;;;;;6.13;2.47;;;;;;;1.99;75.87;98081.50;5085008;28;20052;-67
2022/02/05 08:48:26;;;;;;;7.60;2.22;;;;;;;1.91;75.91;98095.75;5104662;28;20036;-68
2022/02/05 08:50:52;;;;;;;7.90;2.97;;;;;;;1.87;76.21;98090.94;5092307;28;20118;-67
2022/02/05 08:53:21;;;;;;;7.78;2.42;;;;;;;1.96;75.73;98087.22;5090661;28;20044;-67
2022/02/05 08:55:51;;;;;;;5.93;2.97;;;;;;;2.22;75.26;98083.34;5079928;28;20576;-67
2022/02/05 08:58:18;;;;;;;7.82;2.15;;;;;;;2.18;74.97;98085.53;5092138;28;20089;-68
2022/02/05 09:00:50;;;;;;;4.78;2.30;;;;;;;2.28;75.66;98081.78;5092445;28;20047;-68
2022/02/05 09:03:34;;;;;;;6.00;1.88;;;;;;;2.28;74.66;98081.78;5084035;28;20549;-66
2022/02/05 09:06:02;;;;;;;5.35;1.85;;;;;;;2.35;74.70;98082.72;5090218;28;20644;-68
2022/02/05 09:08:34;;;;;;;5.30;2.13;;;;;;;2.36;74.70;98086.22;5086025;28;20052;-68
2022/02/05 09:12:17;;;;;;;14.13;4.72;;;;;;;2.51;74.71;98081.72;5075610;28;20048;-68
2022/02/05 09:14:16;;;;;;;7.22;2.92;;;;;;;2.67;73.86;98078.06;5089634;28;20156;-68
2022/02/05 09:16:44;;;;;;;12.50;3.92;;;;;;;2.72;73.33;98080.16;5086792;28;20044;-68
2022/02/05 09:19:12;;;;;;;7.57;2.88;;;;;;;2.67;73.45;98080.75;5090757;28;20410;-68
2022/02/05 09:21:39;;;;;;;11.95;4.18;;;;;;;2.70;73.31;98080.34;5080141;28;20564;-69
2022/02/05 09:24:07;;;;;;;10.25;4.88;;;;;;;2.73;73.30;98085.34;5098658;28;20097;-68
2022/02/05 09:26:36;;;;;;;14.20;4.57;;;;;;;2.65;74.04;98081.94;5080869;28;20781;-68
2022/02/05 09:29:11;;;;;;;13.60;3.83;;;;;;;2.60;73.57;98091.34;5105848;28;20040;-69
2022/02/05 09:31:38;;;;;;;4.90;1.80;;;;;;;2.80;73.97;98080.09;5087594;28;20056;-67
2022/02/05 09:34:05;;;;;;;7.72;2.63;;;;;;;3.01;73.29;98093.72;5094877;28;20627;-68
2022/02/05 09:36:33;;;;;;;6.90;2.50;;;;;;;3.36;71.49;98086.78;5084781;28;20044;-68
2022/02/05 09:39:00;;;;;;;8.35;3.13;;;;;;;3.60;70.45;98103.53;5084644;28;20165;-69
2022/02/05 09:41:26;;;;;;;7.25;2.15;;;;;;;3.81;70.16;98101.06;5102239;28;20089;-67
2022/02/05 09:43:54;;;;;;;11.80;3.40;;;;;;;3.68;69.50;98097.22;5094235;28;20109;-68
2022/02/05 09:46:22;;;;;;;13.70;5.45;;;;;;;3.80;69.76;98086.88;5100775;28;20627;-68
2022/02/05 09:48:51;;;;;;;20.33;7.80;;;;;;;3.89;68.97;98093.75;5094970;28;20044;-67
2022/02/05 09:51:32;;;;;;;25.95;8.13;;;;;;;3.98;68.18;98091.75;5075620;28;20036;-68
2022/02/05 09:54:01;;;;;;;6.65;2.67;;;;;;;4.01;67.60;98088.69;5077445;28;20056;-67
2022/02/05 09:56:30;;;;;;;7.18;2.90;;;;;;;4.12;67.27;98094.56;5084765;28;20097;-66
2022/02/05 09:58:59;;;;;;;4.43;1.50;;;;;;;4.12;67.84;98092.72;5079414;28;20100;-67
2022/02/05 10:01:30;;;;;;;4.25;1.13;;;;;;;4.16;67.19;98099.34;5089972;28;20200;-66
2022/02/05 10:03:57;;;;;;;4.90;1.85;;;;;;;4.16;65.53;98096.66;5087352;28;20097;-66
2022/02/05 10:06:28;;;;;;;9.35;1.08;;;;;;;4.36;65.12;98097.88;5086356;28;20534;-67
2022/02/05 10:09:06;;;;;;;7.50;2.72;;;;;;;4.47;66.70;98107.22;5101439;28;20093;-67
2022/02/05 10:11:59;;;;;;;3.95;0.82;;;;;;;4.50;63.65;98107.66;5095858;28;20093;-66
2022/02/05 10:14:28;;;;;;;8.30;1.20;;;;;;;4.69;63.77;98106.16;5093670;28;20132;-66
2022/02/05 10:16:57;;;;;;;4.88;1.10;;;;;;;4.82;63.93;98100.06;5074696;28;20457;-66
2022/02/05 10:19:43;;;;;;;7.88;1.33;;;;;;;4.68;63.75;98106.34;5084613;28;20093;-66
2022/02/05 10:22:10;;;;;;;4.35;1.10;;;;;;;4.74;62.59;98115.47;5063176;28;20509;-67
2022/02/05 10:24:49;;;;;;;3.83;1.23;;;;;;;4.62;61.78;98109.81;5075618;28;20504;-66
2022/02/05 10:27:27;;;;;;;6.60;1.08;;;;;;;4.47;60.79;98118.81;5077247;28;20051;-66
2022/02/05 10:30:21;;;;;;;2.92;0.98;;;;;;;4.59;61.37;98115.56;5083038;28;20040;-66
2022/02/05 10:32:58;;;;;;;6.03;1.20;;;;;;;4.68;60.98;98120.59;5083145;28;20048;-67
2022/02/05 10:35:38;;;;;;;5.07;0.95;;;;;;;4.63;61.68;98119.53;5076078;28;20036;-66
2022/02/05 10:40:48;;;;;;;4.78;0.82;;;;;;;4.68;60.79;98120.59;5082124;28;20089;-67
2022/02/05 10:43:31;;;;;;;2.45;0.80;;;;;;;4.91;60.81;98118.69;5082483;28;20077;-66
2022/02/05 10:46:02;;;;;;;3.72;1.30;;;;;;;4.87;59.86;98123.59;5079066;28;20040;-66
2022/02/05 10:48:29;;;;;;;4.65;1.35;;;;;;;4.93;58.52;98130.03;5084018;28;20242;-67
2022/02/05 10:50:57;;;;;;;1.02;0.65;;;;;;;4.90;59.38;98130.47;5083013;28;20102;-67
2022/02/05 10:53:42;;;;;;;2.63;0.60;;;;;;;4.88;58.62;98125.28;5083880;28;20453;-67
2022/02/05 11:07:20;;;;;;;2.97;0.80;;;;;;;5.16;58.55;98129.78;5083447;28;20063;-68
2022/02/05 11:09:49;;;;;;;6.18;1.30;;;;;;;4.90;58.07;98125.09;5080855;28;20043;-69
2022/02/05 11:12:48;;;;;;;10.85;4.97;;;;;;;4.88;59.14;98121.75;5087039;28;20043;-65
2022/02/05 11:18:11;;;;;;;4.78;1.30;;;;;;;5.02;57.84;98128.06;5090575;28;20090;-66
2022/02/05 11:20:38;;;;;;;4.53;0.93;;;;;;;4.90;56.84;98122.41;5086570;28;20048;-65
2022/02/05 11:23:11;;;;;;;3.55;1.05;;;;;;;4.78;56.50;98116.75;5083338;28;20545;-70
2022/02/05 11:25:40;;;;;;;4.70;1.30;;;;;;;5.00;57.75;98124.72;5085264;28;20081;-62
2022/02/05 11:28:10;;;;;;;2.72;1.10;;;;;;;5.03;56.60;98116.28;5086736;28;20044;-70
2022/02/05 11:30:37;;;;;;;3.25;0.77;;;;;;;4.98;56.88;98113.38;5086264;28;20460;-69
2022/02/05 11:33:07;;;;;;;3.78;0.52;;;;;;;4.98;57.39;98116.88;5087066;28;20048;-63
2022/02/05 11:35:45;;;;;;;2.15;0.50;;;;;;;4.93;56.86;98119.31;5087998;28;20028;-65
2022/02/05 11:38:12;;;;;;;2.75;0.93;;;;;;;4.99;56.76;98115.00;5084885;28;20036;-66
2022/02/05 11:40:41;;;;;;;3.45;1.40;;;;;;;4.98;55.62;98110.69;5084468;28;20074;-71
2022/02/05 11:43:21;;;;;;;2.58;0.50;;;;;;;5.00;56.60;98113.97;5087080;28;20055;-65
2022/02/05 11:46:06;;;;;;;4.13;0.50;;;;;;;4.98;56.55;98106.16;5082254;28;20040;-67
2022/02/05 11:48:36;;;;;;;4.43;0.75;;;;;;;5.05;57.34;98115.06;5083039;28;20048;-70
2022/02/05 11:51:17;;;;;;;2.60;0.65;;;;;;;5.08;56.45;98106.63;5088432;28;20048;-65
2022/02/05 11:53:59;;;;;;;4.93;0.98;;;;;;;5.13;55.98;98106.03;5086975;28;20391;-66
2022/02/05 11:56:48;;;;;;;9.52;3.30;;;;;;;5.41;57.03;98102.44;5088235;28;20031;-70
2022/02/05 11:59:19;;;;;;;2.63;0.63;;;;;;;5.42;56.54;98100.56;5082810;28;20040;-69
2022/02/05 12:01:46;;;;;;;2.67;1.17;;;;;;;5.70;56.74;98103.16;5087080;28;20040;-68
2022/02/05 12:04:18;;;;;;;3.42;0.55;;;;;;;5.82;54.43;98099.88;5080724;28;20044;-69
2022/02/05 12:06:59;;;;;;;2.10;0.60;;;;;;;5.93;55.29;98093.91;5080769;28;20044;-70
2022/02/05 12:09:47;;;;;;;5.03;1.23;;;;;;;5.67;54.08;98103.53;5084221;28;20066;-68
2022/02/05 12:12:37;;;;;;;1.83;0.80;;;;;;;5.72;54.49;98094.91;5086853;28;20052;-69
2022/02/05 12:15:13;;;;;;;4.30;0.60;;;;;;;5.71;54.70;98102.13;5084984;28;20047;-66
2022/02/05 12:20:34;;;;;;;3.40;0.73;;;;;;;5.92;54.12;98094.09;5079291;28;20044;-69
2022/02/05 12:25:57;;;;;;;2.55;0.60;;;;;;;5.74;54.54;98087.44;5074115;28;20079;-68
2022/02/05 12:28:37;;;;;;;1.67;0.65;;;;;;;5.50;53.81;98089.66;5085717;28;20040;-68
2022/02/05 12:31:05;;;;;;;2.72;0.75;;;;;;;5.66;53.89;98088.47;5082221;28;20044;-68
2022/02/05 12:33:49;;;;;;;2.75;0.60;;;;;;;5.60;55.01;98092.78;5081402;28;20057;-68
2022/02/05 12:36:41;;;;;;;3.78;1.00;;;;;;;5.61;55.43;98085.56;5083753;28;20435;-69
2022/02/05 12:39:32;;;;;;;0.95;0.43;;;;;;;5.73;55.33;98083.94;5078201;28;20562;-67
2022/02/05 12:42:06;;;;;;;2.10;0.40;;;;;;;5.73;54.48;98080.41;5077366;28;20060;-68
2022/02/05 12:44:36;;;;;;;4.45;1.23;;;;;;;5.62;54.50;98086.38;5084057;28;20768;-68
2022/02/05 12:47:10;;;;;;;1.13;0.52;;;;;;;5.53;53.73;98075.81;5079329;28;20052;-68
2022/02/05 12:52:33;;;;;;;5.35;0.90;;;;;;;5.55;54.25;98081.81;5074523;28;20067;-68
2022/02/05 12:55:01;;;;;;;2.15;0.50;;;;;;;5.43;55.42;98086.13;5079978;28;20082;-67
2022/02/05 12:57:29;;;;;;;2.60;0.80;;;;;;;5.49;54.65;98093.34;5080352;28;20097;-68
2022/02/05 13:00:07;;;;;;;5.10;0.98;;;;;;;5.57;55.05;98089.69;5093528;28;20044;-68
2022/02/05 13:02:33;;;;;;;4.63;0.98;;;;;;;5.54;53.93;98090.06;5081235;28;20036;-67
2022/02/05 13:05:00;;;;;;;2.88;0.55;;;;;;;5.52;55.10;98071.47;5075786;28;20114;-67
2022/02/05 13:07:28;;;;;;;2.53;0.85;;;;;;;5.60;54.79;98082.03;5072259;28;20040;-68
2022/02/05 13:10:02;;;;;;;4.32;1.30;;;;;;;5.52;56.19;98076.00;5085035;28;20028;-66
2022/02/05 13:12:32;;;;;;;1.25;0.60;;;;;;;5.45;55.95;98074.13;5079466;28;20045;-68
2022/02/05 13:15:25;;;;;;;0.80;0.57;;;;;;;5.44;56.15;98071.66;5080781;28;20515;-69
2022/02/05 13:36:43;;;;;;;2.28;0.70;;;;;;;5.24;56.90;98053.63;5082108;28;20051;-68
2022/02/05 13:42:09;;;;;;;2.47;0.93;;;;;;;5.27;57.47;98058.56;5095213;28;20069;-67
2022/02/05 13:44:41;;;;;;;2.67;0.98;;;;;;;5.16;56.48;98059.16;5066430;28;20423;-69
2022/02/05 13:47:12;;;;;;;4.55;1.10;;;;;;;5.19;57.48;98062.25;5066358;28;20443;-70
2022/02/05 13:49:40;;;;;;;2.25;0.75;;;;;;;5.11;57.35;98058.91;5077960;28;20090;-68
2022/02/05 13:52:07;;;;;;;2.72;0.65;;;;;;;5.13;56.66;98062.25;5086802;28;20062;-70
2022/02/05 13:54:36;;;;;;;1.80;0.73;;;;;;;5.12;56.01;98042.59;5082732;28;20109;-69
2022/02/05 13:57:03;;;;;;;3.15;0.65;;;;;;;5.14;56.40;98047.78;5084245;28;20550;-68
2022/02/05 13:59:33;;;;;;;3.70;0.90;;;;;;;5.24;57.21;98042.03;5092491;28;20796;-70
2022/02/05 14:02:15;;;;;;;0.95;0.50;;;;;;;5.23;56.27;98043.06;5087663;28;20043;-68
2022/02/05 14:04:42;;;;;;;;;;;;;;;5.31;56.58;98041.03;5084185;28;20048;-68
2022/02/05 14:07:09;;;;;;;1.88;0.80;;;;;;;5.47;56.12;98039.84;5084176;28;19926;-70
2022/02/05 14:09:36;;;;;;;1.30;0.60;;;;;;;5.45;55.10;98047.28;5080777;28;20040;-68
2022/02/05 14:12:17;;;;;;;5.18;1.27;;;;;;;5.49;55.51;98049.56;5084620;28;20600;-69
2022/02/05 14:14:44;;;;;;;2.88;1.00;;;;;;;5.43;55.18;98045.81;5083118;28;20621;-67
2022/02/05 14:17:16;;;;;;;1.58;0.70;;;;;;;5.49;55.59;98047.69;5070751;28;20045;-70
2022/02/05 14:19:43;;;;;;;;;;;;;;;5.81;54.66;98052.53;5083466;28;20085;-69
2022/02/05 14:22:23;;;;;;;3.35;0.63;;;;;;;6.79;52.22;98042.19;5093931;28;19924;-69
2022/02/05 14:25:21;;;;;;;2.45;0.57;;;;;;;8.03;48.67;98042.19;5085659;28;20490;-68
2022/02/05 14:28:11;;;;;;;2.28;0.73;;;;;;;8.31;46.92;98043.66;5082279;28;20068;-70
2022/02/05 14:30:41;;;;;;;2.65;0.70;;;;;;;8.85;45.73;98041.28;5097159;28;20040;-70
2022/02/05 14:33:13;;;;;;;4.10;0.75;;;;;;;8.04;46.92;98038.47;5086664;28;20044;-68
2022/02/05 14:40:54;;;;;;;2.92;0.90;;;;;;;9.31;44.23;98051.81;5082495;28;20040;-68
2022/02/05 14:43:22;;;;;;;1.67;0.50;;;;;;;9.08;44.53;98036.28;5085171;28;20051;-70
2022/02/05 14:45:49;;;;;;;3.47;0.90;;;;;;;9.23;43.70;98041.28;5081990;28;20041;-68
2022/02/05 14:48:15;;;;;;;4.32;1.58;;;;;;;8.37;45.29;98039.25;5084415;28;20040;-69